sensor_id;sensor_type;location;lat;lon;timestamp;pressure;altitude;pressure_sealevel;temperature;humidity
28683;BME280;15862;43.062;25.626;2022-07-01T00:00:57;99767.69;;;20.23;100.00
28683;BME280;15862;43.062;25.626;2022-07-01T00:03:22;99767.03;;;20.21;100.00
28683;BME280;15862;43.062;25.626;2022-07-01T00:05:48;99757.25;;;20.15;100.00
28683;BME280;15862;43.062;25.626;2022-07-01T00:08:13;99767.03;;;20.21;100.00
28683;BME280;15862;43.062;25.626;2022-07-01T00:10:39;99759.69;;;20.17;100.00
28683;BME280;15862;43.062;25.626;2022-07-01T00:13:04;99763.50;;;20.14;100.00
28683;BME280;15862;43.062;25.626;2022-07-01T00:15:31;99766.47;;;20.11;100.00
28683;BME280;15862;43.062;25.626;2022-07-01T00:17:57;99756.56;;;19.99;100.00
28683;BME280;15862;43.062;25.626;2022-07-01T00:20:22;99757.19;;;20.01;100.00
28683;BME280;15862;43.062;25.626;2022-07-01T00:22:48;99762.72;;;20.06;100.00
28683;BME280;15862;43.062;25.626;2022-07-01T00:25:13;99765.44;;;19.98;100.00
28683;BME280;15862;43.062;25.626;2022-07-01T00:27:39;99771.03;;;19.95;100.00
28683;BME280;15862;43.062;25.626;2022-07-01T00:30:09;99768.41;;;19.95;100.00
28683;BME280;15862;43.062;25.626;2022-07-01T00:32:35;99769.84;;;19.98;100.00
28683;BME280;15862;43.062;25.626;2022-07-01T00:35:01;99766.25;;;19.98;100.00
28683;BME280;15862;43.062;25.626;2022-07-01T00:37:27;99749.06;;;19.88;100.00
28683;BME280;15862;43.062;25.626;2022-07-01T00:39:52;99764.28;;;19.93;100.00
28683;BME280;15862;43.062;25.626;2022-07-01T00:42:18;99765.16;;;19.85;100.00
28683;BME280;15862;43.062;25.626;2022-07-01T00:44:44;99766.69;;;19.80;100.00
28683;BME280;15862;43.062;25.626;2022-07-01T00:47:11;99763.28;;;19.71;100.00
28683;BME280;15862;43.062;25.626;2022-07-01T00:49:39;99756.41;;;19.70;100.00
28683;BME280;15862;43.062;25.626;2022-07-01T00:52:06;99762.13;;;19.74;100.00
28683;BME280;15862;43.062;25.626;2022-07-01T00:54:35;99772.81;;;19.64;100.00
28683;BME280;15862;43.062;25.626;2022-07-01T00:57:06;99764.97;;;19.64;100.00
28683;BME280;15862;43.062;25.626;2022-07-01T00:59:32;99752.84;;;19.63;100.00
28683;BME280;15862;43.062;25.626;2022-07-01T01:01:59;99752.84;;;19.63;100.00
28683;BME280;15862;43.062;25.626;2022-07-01T01:04:25;99765.00;;;19.56;100.00
28683;BME280;15862;43.062;25.626;2022-07-01T01:06:50;99763.91;;;19.51;100.00
28683;BME280;15862;43.062;25.626;2022-07-01T01:09:16;99763.44;;;19.47;100.00
28683;BME280;15862;43.062;25.626;2022-07-01T01:11:41;99773.09;;;19.47;100.00
28683;BME280;15862;43.062;25.626;2022-07-01T01:14:07;99775.25;;;19.43;100.00
28683;BME280;15862;43.062;25.626;2022-07-01T01:16:32;99780.47;;;19.43;100.00
28683;BME280;15862;43.062;25.626;2022-07-01T01:19:04;99760.72;;;19.33;100.00
28683;BME280;15862;43.062;25.626;2022-07-01T01:21:29;99771.16;;;19.41;100.00
28683;BME280;15862;43.062;25.626;2022-07-01T01:23:57;99776.91;;;19.36;100.00
28683;BME280;15862;43.062;25.626;2022-07-01T01:26:22;99770.41;;;19.32;100.00
28683;BME280;15862;43.062;25.626;2022-07-01T01:28:50;99770.41;;;19.32;100.00
28683;BME280;15862;43.062;25.626;2022-07-01T01:31:16;99777.91;;;19.35;100.00
28683;BME280;15862;43.062;25.626;2022-07-01T01:33:42;99766.88;;;19.18;100.00
28683;BME280;15862;43.062;25.626;2022-07-01T01:36:07;99793.66;;;19.27;100.00
28683;BME280;15862;43.062;25.626;2022-07-01T01:38:34;99795.78;;;19.24;100.00
28683;BME280;15862;43.062;25.626;2022-07-01T01:41:01;99793.34;;;19.22;100.00
28683;BME280;15862;43.062;25.626;2022-07-01T01:43:26;99791.41;;;19.24;100.00
28683;BME280;15862;43.062;25.626;2022-07-01T01:45:51;99789.94;;;19.22;100.00
28683;BME280;15862;43.062;25.626;2022-07-01T01:48:17;99802.53;;;19.18;100.00
28683;BME280;15862;43.062;25.626;2022-07-01T01:50:42;99792.56;;;19.14;100.00
28683;BME280;15862;43.062;25.626;2022-07-01T01:53:08;99804.38;;;19.10;100.00
28683;BME280;15862;43.062;25.626;2022-07-01T01:55:33;99803.56;;;19.10;100.00
28683;BME280;15862;43.062;25.626;2022-07-01T01:57:59;99789.13;;;18.98;100.00
28683;BME280;15862;43.062;25.626;2022-07-01T02:00:24;99802.22;;;19.06;100.00
28683;BME280;15862;43.062;25.626;2022-07-01T02:02:50;99795.69;;;19.02;100.00
28683;BME280;15862;43.062;25.626;2022-07-01T02:05:15;99779.69;;;18.89;100.00
28683;BME280;15862;43.062;25.626;2022-07-01T02:07:41;99794.38;;;18.98;100.00
28683;BME280;15862;43.062;25.626;2022-07-01T02:10:07;99792.13;;;18.87;100.00
28683;BME280;15862;43.062;25.626;2022-07-01T02:12:33;99796.22;;;18.89;100.00
28683;BME280;15862;43.062;25.626;2022-07-01T02:14:58;99806.69;;;18.89;100.00
28683;BME280;15862;43.062;25.626;2022-07-01T02:17:24;99771.91;;;18.65;100.00
28683;BME280;15862;43.062;25.626;2022-07-01T02:19:51;99806.53;;;18.83;100.00
28683;BME280;15862;43.062;25.626;2022-07-01T02:22:16;99809.19;;;18.75;100.00
28683;BME280;15862;43.062;25.626;2022-07-01T02:24:42;99816.03;;;18.76;100.00
28683;BME280;15862;43.062;25.626;2022-07-01T02:27:09;99810.66;;;18.69;100.00
28683;BME280;15862;43.062;25.626;2022-07-01T02:29:34;99815.53;;;18.72;100.00
28683;BME280;15862;43.062;25.626;2022-07-01T02:32:00;99826.03;;;18.72;100.00
28683;BME280;15862;43.062;25.626;2022-07-01T02:34:25;99833.88;;;18.64;100.00
28683;BME280;15862;43.062;25.626;2022-07-01T02:36:51;99831.25;;;18.64;100.00
28683;BME280;15862;43.062;25.626;2022-07-01T02:39:20;99833.56;;;18.67;100.00
28683;BME280;15862;43.062;25.626;2022-07-01T02:41:46;99831.13;;;18.66;100.00
28683;BME280;15862;43.062;25.626;2022-07-01T02:44:30;99841.25;;;18.69;100.00
28683;BME280;15862;43.062;25.626;2022-07-01T02:46:55;99827.00;;;18.71;100.00
28683;BME280;15862;43.062;25.626;2022-07-01T02:49:22;99835.03;;;18.70;100.00
28683;BME280;15862;43.062;25.626;2022-07-01T02:51:47;99839.59;;;18.68;100.00
28683;BME280;15862;43.062;25.626;2022-07-01T02:54:12;99840.25;;;18.62;100.00
28683;BME280;15862;43.062;25.626;2022-07-01T02:56:38;99840.25;;;18.62;100.00
28683;BME280;15862;43.062;25.626;2022-07-01T02:59:03;99849.75;;;18.63;100.00
28683;BME280;15862;43.062;25.626;2022-07-01T03:01:29;99829.97;;;18.52;100.00
28683;BME280;15862;43.062;25.626;2022-07-01T03:03:54;99841.72;;;18.72;100.00
28683;BME280;15862;43.062;25.626;2022-07-01T03:06:19;99835.38;;;18.75;100.00
28683;BME280;15862;43.062;25.626;2022-07-01T03:08:45;99829.47;;;18.65;100.00
28683;BME280;15862;43.062;25.626;2022-07-01T03:11:10;99847.44;;;18.76;100.00
28683;BME280;15862;43.062;25.626;2022-07-01T03:13:36;99838.31;;;18.72;100.00
28683;BME280;15862;43.062;25.626;2022-07-01T03:16:01;99844.00;;;18.83;100.00
28683;BME280;15862;43.062;25.626;2022-07-01T03:18:26;99837.63;;;18.86;100.00
28683;BME280;15862;43.062;25.626;2022-07-01T03:20:52;99837.63;;;18.86;100.00
28683;BME280;15862;43.062;25.626;2022-07-01T03:23:17;99849.22;;;18.99;100.00
28683;BME280;15862;43.062;25.626;2022-07-01T03:25:43;99854.78;;;19.04;100.00
28683;BME280;15862;43.062;25.626;2022-07-01T03:28:08;99838.91;;;18.98;100.00
28683;BME280;15862;43.062;25.626;2022-07-01T03:30:34;99856.06;;;19.16;100.00
28683;BME280;15862;43.062;25.626;2022-07-01T03:32:59;99851.97;;;19.21;100.00
28683;BME280;15862;43.062;25.626;2022-07-01T03:35:25;99851.78;;;19.31;100.00
28683;BME280;15862;43.062;25.626;2022-07-01T03:38:05;99853.59;;;19.30;100.00
28683;BME280;15862;43.062;25.626;2022-07-01T03:40:31;99851.00;;;19.22;100.00
28683;BME280;15862;43.062;25.626;2022-07-01T03:42:57;99855.56;;;19.28;100.00
28683;BME280;15862;43.062;25.626;2022-07-01T03:45:23;99856.19;;;19.38;100.00
28683;BME280;15862;43.062;25.626;2022-07-01T03:47:48;99858.09;;;19.52;100.00
28683;BME280;15862;43.062;25.626;2022-07-01T03:50:15;99852.31;;;19.65;100.00
28683;BME280;15862;43.062;25.626;2022-07-01T03:52:41;99853.84;;;19.82;100.00
28683;BME280;15862;43.062;25.626;2022-07-01T03:55:09;99853.50;;;19.85;100.00
28683;BME280;15862;43.062;25.626;2022-07-01T03:57:34;99856.59;;;19.96;100.00
28683;BME280;15862;43.062;25.626;2022-07-01T04:00:00;99858.47;;;20.10;100.00
28683;BME280;15862;43.062;25.626;2022-07-01T04:02:25;99865.03;;;20.06;100.00
28683;BME280;15862;43.062;25.626;2022-07-01T04:04:51;99870.03;;;20.23;100.00
28683;BME280;15862;43.062;25.626;2022-07-01T04:07:16;99863.84;;;20.39;100.00
28683;BME280;15862;43.062;25.626;2022-07-01T04:09:42;99871.75;;;20.53;100.00
28683;BME280;15862;43.062;25.626;2022-07-01T04:12:09;99867.22;;;20.70;100.00
28683;BME280;15862;43.062;25.626;2022-07-01T04:14:36;99868.00;;;20.70;100.00
28683;BME280;15862;43.062;25.626;2022-07-01T04:17:01;99871.06;;;20.81;100.00
28683;BME280;15862;43.062;25.626;2022-07-01T04:19:27;99880.31;;;20.77;100.00
28683;BME280;15862;43.062;25.626;2022-07-01T04:21:53;99873.03;;;20.79;100.00
28683;BME280;15862;43.062;25.626;2022-07-01T04:24:37;99881.16;;;21.07;100.00
28683;BME280;15862;43.062;25.626;2022-07-01T04:27:03;99887.13;;;21.15;100.00
28683;BME280;15862;43.062;25.626;2022-07-01T04:29:28;99885.25;;;21.38;100.00
28683;BME280;15862;43.062;25.626;2022-07-01T04:31:58;99877.91;;;21.34;100.00
28683;BME280;15862;43.062;25.626;2022-07-01T04:34:24;99884.28;;;21.53;100.00
28683;BME280;15862;43.062;25.626;2022-07-01T04:36:50;99883.13;;;21.56;100.00
28683;BME280;15862;43.062;25.626;2022-07-01T04:39:15;99871.97;;;21.54;100.00
28683;BME280;15862;43.062;25.626;2022-07-01T04:41:41;99898.50;;;21.73;100.00
28683;BME280;15862;43.062;25.626;2022-07-01T04:44:26;99872.41;;;21.72;100.00
28683;BME280;15862;43.062;25.626;2022-07-01T04:46:52;99891.97;;;21.84;100.00
28683;BME280;15862;43.062;25.626;2022-07-01T04:49:18;99872.56;;;21.70;100.00
28683;BME280;15862;43.062;25.626;2022-07-01T04:51:43;99885.44;;;21.80;100.00
28683;BME280;15862;43.062;25.626;2022-07-01T04:54:09;99903.03;;;21.94;100.00
28683;BME280;15862;43.062;25.626;2022-07-01T04:56:35;99890.13;;;21.99;100.00
28683;BME280;15862;43.062;25.626;2022-07-01T04:59:01;99891.91;;;22.13;100.00
28683;BME280;15862;43.062;25.626;2022-07-01T05:01:27;99888.31;;;22.34;100.00
28683;BME280;15862;43.062;25.626;2022-07-01T05:03:53;99875.91;;;22.49;100.00
28683;BME280;15862;43.062;25.626;2022-07-01T05:06:19;99893.69;;;22.68;100.00
28683;BME280;15862;43.062;25.626;2022-07-01T05:08:44;99886.50;;;22.77;100.00
28683;BME280;15862;43.062;25.626;2022-07-01T05:11:10;99881.31;;;22.90;100.00
28683;BME280;15862;43.062;25.626;2022-07-01T05:13:36;99886.78;;;23.15;100.00
28683;BME280;15862;43.062;25.626;2022-07-01T05:16:02;99886.28;;;23.33;100.00
28683;BME280;15862;43.062;25.626;2022-07-01T05:18:28;99883.75;;;23.46;97.36
28683;BME280;15862;43.062;25.626;2022-07-01T05:21:12;99883.53;;;23.81;89.21
28683;BME280;15862;43.062;25.626;2022-07-01T05:23:56;99882.09;;;24.38;85.58
28683;BME280;15862;43.062;25.626;2022-07-01T05:26:21;99892.69;;;24.64;80.50
28683;BME280;15862;43.062;25.626;2022-07-01T05:28:48;99886.22;;;24.99;78.43
28683;BME280;15862;43.062;25.626;2022-07-01T05:31:13;99891.69;;;25.43;75.45
28683;BME280;15862;43.062;25.626;2022-07-01T05:33:39;99886.78;;;25.40;74.56
28683;BME280;15862;43.062;25.626;2022-07-01T05:36:05;99883.69;;;25.55;74.59
28683;BME280;15862;43.062;25.626;2022-07-01T05:38:30;99886.69;;;25.78;72.75
28683;BME280;15862;43.062;25.626;2022-07-01T05:40:56;99889.13;;;25.86;72.27
28683;BME280;15862;43.062;25.626;2022-07-01T05:43:21;99875.81;;;25.99;72.91
28683;BME280;15862;43.062;25.626;2022-07-01T05:45:47;99887.13;;;26.13;71.08
28683;BME280;15862;43.062;25.626;2022-07-01T05:48:12;99875.56;;;26.69;67.94
28683;BME280;15862;43.062;25.626;2022-07-01T05:50:39;99885.78;;;27.38;64.08
28683;BME280;15862;43.062;25.626;2022-07-01T05:53:05;99883.22;;;27.86;61.78
28683;BME280;15862;43.062;25.626;2022-07-01T05:55:30;99898.78;;;28.59;58.57
28683;BME280;15862;43.062;25.626;2022-07-01T05:57:56;99890.56;;;29.24;54.95
28683;BME280;15862;43.062;25.626;2022-07-01T06:00:21;99892.03;;;29.54;53.47
28683;BME280;15862;43.062;25.626;2022-07-01T06:02:47;99880.22;;;30.56;50.21
28683;BME280;15862;43.062;25.626;2022-07-01T06:05:13;99892.78;;;30.72;49.69
28683;BME280;15862;43.062;25.626;2022-07-01T06:07:39;99888.31;;;31.65;48.08
28683;BME280;15862;43.062;25.626;2022-07-01T06:10:07;99890.91;;;32.50;46.28
28683;BME280;15862;43.062;25.626;2022-07-01T06:12:33;99886.78;;;32.95;44.40
28683;BME280;15862;43.062;25.626;2022-07-01T06:14:59;99894.97;;;32.84;44.49
28683;BME280;15862;43.062;25.626;2022-07-01T06:17:24;99897.94;;;33.19;43.48
28683;BME280;15862;43.062;25.626;2022-07-01T06:19:50;99882.59;;;33.55;42.46
28683;BME280;15862;43.062;25.626;2022-07-01T06:22:15;99899.88;;;33.74;42.28
28683;BME280;15862;43.062;25.626;2022-07-01T06:24:43;99904.53;;;32.75;43.94
28683;BME280;15862;43.062;25.626;2022-07-01T06:27:10;99913.72;;;32.84;44.98
28683;BME280;15862;43.062;25.626;2022-07-01T06:29:36;99922.72;;;32.73;45.28
28683;BME280;15862;43.062;25.626;2022-07-01T06:32:03;99924.59;;;32.46;45.21
28683;BME280;15862;43.062;25.626;2022-07-01T06:34:28;99934.69;;;32.39;46.61
28683;BME280;15862;43.062;25.626;2022-07-01T06:36:54;99924.88;;;31.81;46.82
28683;BME280;15862;43.062;25.626;2022-07-01T06:39:21;99940.19;;;32.06;47.50
28683;BME280;15862;43.062;25.626;2022-07-01T06:41:46;99940.78;;;32.56;45.46
28683;BME280;15862;43.062;25.626;2022-07-01T06:44:11;99943.72;;;32.86;44.31
28683;BME280;15862;43.062;25.626;2022-07-01T06:46:37;99938.34;;;32.81;42.84
28683;BME280;15862;43.062;25.626;2022-07-01T06:49:03;99917.50;;;32.35;44.41
28683;BME280;15862;43.062;25.626;2022-07-01T06:51:29;99918.41;;;31.77;44.74
28683;BME280;15862;43.062;25.626;2022-07-01T06:53:54;99905.84;;;31.98;44.42
28683;BME280;15862;43.062;25.626;2022-07-01T06:56:20;99902.00;;;31.89;45.91
28683;BME280;15862;43.062;25.626;2022-07-01T06:58:45;99899.19;;;31.42;46.37
28683;BME280;15862;43.062;25.626;2022-07-01T07:01:11;99895.78;;;31.08;47.89
28683;BME280;15862;43.062;25.626;2022-07-01T07:03:37;99891.31;;;30.98;47.42
28683;BME280;15862;43.062;25.626;2022-07-01T07:06:04;99905.91;;;31.07;51.89
28683;BME280;15862;43.062;25.626;2022-07-01T07:08:30;99910.09;;;30.86;56.27
28683;BME280;15862;43.062;25.626;2022-07-01T07:10:56;99887.59;;;30.38;54.27
28683;BME280;15862;43.062;25.626;2022-07-01T07:13:22;99890.66;;;30.74;51.86
28683;BME280;15862;43.062;25.626;2022-07-01T07:15:47;99884.69;;;31.16;49.79
28683;BME280;15862;43.062;25.626;2022-07-01T07:18:13;99886.59;;;31.54;48.79
28683;BME280;15862;43.062;25.626;2022-07-01T07:20:38;99889.06;;;31.06;50.13
28683;BME280;15862;43.062;25.626;2022-07-01T07:23:04;99882.75;;;30.79;51.12
28683;BME280;15862;43.062;25.626;2022-07-01T07:25:30;99884.03;;;30.77;50.98
28683;BME280;15862;43.062;25.626;2022-07-01T07:27:55;99883.22;;;30.76;56.15
28683;BME280;15862;43.062;25.626;2022-07-01T07:30:21;99889.13;;;30.78;55.07
28683;BME280;15862;43.062;25.626;2022-07-01T07:32:47;99862.03;;;30.70;54.45
28683;BME280;15862;43.062;25.626;2022-07-01T07:35:12;99892.13;;;30.98;54.28
28683;BME280;15862;43.062;25.626;2022-07-01T07:37:39;99890.41;;;31.41;52.62
28683;BME280;15862;43.062;25.626;2022-07-01T07:40:05;99893.34;;;32.04;51.02
28683;BME280;15862;43.062;25.626;2022-07-01T07:42:36;99902.91;;;33.46;46.70
28683;BME280;15862;43.062;25.626;2022-07-01T07:45:02;99897.16;;;35.30;41.77
28683;BME280;15862;43.062;25.626;2022-07-01T07:47:29;99896.66;;;36.87;39.54
28683;BME280;15862;43.062;25.626;2022-07-01T07:49:54;99903.06;;;38.36;36.68
28683;BME280;15862;43.062;25.626;2022-07-01T07:52:20;99899.00;;;39.61;34.56
28683;BME280;15862;43.062;25.626;2022-07-01T07:54:45;99895.53;;;40.80;31.71
28683;BME280;15862;43.062;25.626;2022-07-01T07:57:11;99890.59;;;41.81;31.41
28683;BME280;15862;43.062;25.626;2022-07-01T07:59:37;99894.56;;;41.75;31.43
28683;BME280;15862;43.062;25.626;2022-07-01T08:02:03;99894.66;;;42.01;30.64
28683;BME280;15862;43.062;25.626;2022-07-01T08:04:28;99884.38;;;41.51;30.51
28683;BME280;15862;43.062;25.626;2022-07-01T08:06:54;99897.03;;;42.02;30.13
28683;BME280;15862;43.062;25.626;2022-07-01T08:09:19;99894.28;;;41.85;31.10
28683;BME280;15862;43.062;25.626;2022-07-01T08:11:45;99894.19;;;41.21;30.80
28683;BME280;15862;43.062;25.626;2022-07-01T08:14:10;99895.53;;;41.10;30.29
28683;BME280;15862;43.062;25.626;2022-07-01T08:16:36;99889.47;;;40.26;30.38
28683;BME280;15862;43.062;25.626;2022-07-01T08:19:02;99889.09;;;40.32;28.97
28683;BME280;15862;43.062;25.626;2022-07-01T08:21:28;99896.03;;;40.82;29.52
28683;BME280;15862;43.062;25.626;2022-07-01T08:23:54;99893.84;;;40.92;29.72
28683;BME280;15862;43.062;25.626;2022-07-01T08:26:19;99895.81;;;40.70;31.77
28683;BME280;15862;43.062;25.626;2022-07-01T08:28:45;99888.44;;;40.49;30.10
28683;BME280;15862;43.062;25.626;2022-07-01T08:31:10;99886.22;;;40.02;31.17
28683;BME280;15862;43.062;25.626;2022-07-01T08:33:36;99884.75;;;39.83;30.74
28683;BME280;15862;43.062;25.626;2022-07-01T08:36:06;99891.63;;;39.21;31.62
28683;BME280;15862;43.062;25.626;2022-07-01T08:38:32;99893.00;;;39.51;30.77
28683;BME280;15862;43.062;25.626;2022-07-01T08:40:57;99900.97;;;38.97;31.15
28683;BME280;15862;43.062;25.626;2022-07-01T08:43:23;99890.03;;;38.38;31.60
28683;BME280;15862;43.062;25.626;2022-07-01T08:45:51;99873.34;;;37.95;33.13
28683;BME280;15862;43.062;25.626;2022-07-01T08:48:16;99885.44;;;38.39;33.13
28683;BME280;15862;43.062;25.626;2022-07-01T08:50:42;99905.56;;;38.83;31.64
28683;BME280;15862;43.062;25.626;2022-07-01T08:53:09;99897.91;;;38.53;31.94
28683;BME280;15862;43.062;25.626;2022-07-01T08:55:35;99905.19;;;39.35;31.73
28683;BME280;15862;43.062;25.626;2022-07-01T08:58:22;99906.22;;;40.63;30.15
28683;BME280;15862;43.062;25.626;2022-07-01T09:00:47;99909.31;;;40.48;29.80
28683;BME280;15862;43.062;25.626;2022-07-01T09:03:13;99907.47;;;40.57;30.45
28683;BME280;15862;43.062;25.626;2022-07-01T09:05:48;99899.81;;;41.63;28.82
28683;BME280;15862;43.062;25.626;2022-07-01T09:08:14;99900.09;;;42.26;27.45
28683;BME280;15862;43.062;25.626;2022-07-01T09:10:40;99906.03;;;42.70;27.75
28683;BME280;15862;43.062;25.626;2022-07-01T09:13:10;99900.25;;;42.89;26.00
28683;BME280;15862;43.062;25.626;2022-07-01T09:15:37;99894.84;;;42.55;26.31
28683;BME280;15862;43.062;25.626;2022-07-01T09:18:05;99906.50;;;41.27;28.17
28683;BME280;15862;43.062;25.626;2022-07-01T09:20:37;99886.91;;;41.39;28.16
28683;BME280;15862;43.062;25.626;2022-07-01T09:23:04;99892.63;;;41.76;27.14
28683;BME280;15862;43.062;25.626;2022-07-01T09:25:35;99871.78;;;42.10;27.57
28683;BME280;15862;43.062;25.626;2022-07-01T09:28:23;99884.16;;;41.60;27.51
28683;BME280;15862;43.062;25.626;2022-07-01T09:30:52;99878.47;;;40.09;28.75
28683;BME280;15862;43.062;25.626;2022-07-01T09:33:20;99876.31;;;39.44;30.57
28683;BME280;15862;43.062;25.626;2022-07-01T09:35:47;99885.56;;;40.97;29.37
28683;BME280;15862;43.062;25.626;2022-07-01T09:38:15;99876.91;;;42.03;28.36
28683;BME280;15862;43.062;25.626;2022-07-01T09:40:57;99878.53;;;42.21;26.57
28683;BME280;15862;43.062;25.626;2022-07-01T09:43:27;99871.88;;;41.80;28.76
28683;BME280;15862;43.062;25.626;2022-07-01T09:51:04;99872.91;;;42.26;26.82
28683;BME280;15862;43.062;25.626;2022-07-01T09:53:30;99870.53;;;42.50;27.62
28683;BME280;15862;43.062;25.626;2022-07-01T09:55:57;99862.44;;;43.50;26.32
28683;BME280;15862;43.062;25.626;2022-07-01T09:58:22;99856.22;;;44.72;23.96
28683;BME280;15862;43.062;25.626;2022-07-01T10:00:48;99862.44;;;45.28;23.31
28683;BME280;15862;43.062;25.626;2022-07-01T10:03:16;99860.22;;;45.42;23.04
28683;BME280;15862;43.062;25.626;2022-07-01T10:06:06;99849.59;;;45.76;23.10
28683;BME280;15862;43.062;25.626;2022-07-01T10:14:02;99840.16;;;45.02;22.30
28683;BME280;15862;43.062;25.626;2022-07-01T10:16:28;99825.25;;;45.48;21.49
28683;BME280;15862;43.062;25.626;2022-07-01T10:18:57;99831.66;;;46.03;21.64
28683;BME280;15862;43.062;25.626;2022-07-01T10:21:27;99828.41;;;46.25;20.30
28683;BME280;15862;43.062;25.626;2022-07-01T10:23:56;99832.06;;;45.06;21.63
28683;BME280;15862;43.062;25.626;2022-07-01T10:26:35;99818.38;;;43.97;22.66
28683;BME280;15862;43.062;25.626;2022-07-01T10:29:02;99814.38;;;43.95;23.12
28683;BME280;15862;43.062;25.626;2022-07-01T10:31:37;99803.91;;;44.82;21.54
28683;BME280;15862;43.062;25.626;2022-07-01T10:34:04;99811.47;;;45.32;20.86
28683;BME280;15862;43.062;25.626;2022-07-01T10:36:33;99804.47;;;46.49;18.66
28683;BME280;15862;43.062;25.626;2022-07-01T10:44:11;99806.44;;;47.10;19.37
28683;BME280;15862;43.062;25.626;2022-07-01T10:46:59;99800.88;;;47.53;18.89
28683;BME280;15862;43.062;25.626;2022-07-01T10:52:04;99799.19;;;47.83;19.42
28683;BME280;15862;43.062;25.626;2022-07-01T10:59:47;99782.38;;;47.84;19.14
28683;BME280;15862;43.062;25.626;2022-07-01T11:02:28;99782.97;;;47.93;18.50
28683;BME280;15862;43.062;25.626;2022-07-01T11:04:59;99771.56;;;47.23;19.97
28683;BME280;15862;43.062;25.626;2022-07-01T11:07:27;99771.41;;;46.27;20.56
28683;BME280;15862;43.062;25.626;2022-07-01T11:09:53;99778.47;;;46.28;20.48
28683;BME280;15862;43.062;25.626;2022-07-01T11:12:20;99768.84;;;45.79;20.32
28683;BME280;15862;43.062;25.626;2022-07-01T11:14:47;99756.91;;;45.60;21.58
28683;BME280;15862;43.062;25.626;2022-07-01T11:17:13;99763.34;;;45.04;21.49
28683;BME280;15862;43.062;25.626;2022-07-01T11:19:39;99746.59;;;45.41;21.65
28683;BME280;15862;43.062;25.626;2022-07-01T11:22:05;99746.28;;;45.82;20.87
28683;BME280;15862;43.062;25.626;2022-07-01T11:24:31;99751.00;;;45.97;21.18
28683;BME280;15862;43.062;25.626;2022-07-01T11:27:14;99755.44;;;45.50;21.00
28683;BME280;15862;43.062;25.626;2022-07-01T11:29:40;99749.72;;;45.79;21.15
28683;BME280;15862;43.062;25.626;2022-07-01T11:32:05;99751.50;;;46.42;20.60
28683;BME280;15862;43.062;25.626;2022-07-01T11:34:32;99750.28;;;47.16;19.95
28683;BME280;15862;43.062;25.626;2022-07-01T11:36:57;99748.00;;;46.29;20.55
28683;BME280;15862;43.062;25.626;2022-07-01T11:39:41;99744.81;;;46.12;21.13
28683;BME280;15862;43.062;25.626;2022-07-01T11:42:09;99739.91;;;46.05;21.01
28683;BME280;15862;43.062;25.626;2022-07-01T11:44:42;99735.72;;;45.96;21.05
28683;BME280;15862;43.062;25.626;2022-07-01T11:47:10;99728.09;;;45.50;21.76
28683;BME280;15862;43.062;25.626;2022-07-01T11:49:46;99716.78;;;44.65;22.26
28683;BME280;15862;43.062;25.626;2022-07-01T11:52:12;99706.31;;;44.79;21.38
28683;BME280;15862;43.062;25.626;2022-07-01T11:54:39;99713.97;;;44.97;22.61
28683;BME280;15862;43.062;25.626;2022-07-01T11:57:17;99707.78;;;45.36;21.48
28683;BME280;15862;43.062;25.626;2022-07-01T11:59:44;99711.66;;;45.74;21.75
28683;BME280;15862;43.062;25.626;2022-07-01T12:02:12;99707.69;;;45.99;21.44
28683;BME280;15862;43.062;25.626;2022-07-01T12:04:40;99705.50;;;45.65;22.82
28683;BME280;15862;43.062;25.626;2022-07-01T12:07:06;99698.97;;;46.09;21.26
28683;BME280;15862;43.062;25.626;2022-07-01T12:09:33;99688.03;;;46.09;21.28
28683;BME280;15862;43.062;25.626;2022-07-01T12:11:58;99684.75;;;46.03;20.51
28683;BME280;15862;43.062;25.626;2022-07-01T12:14:30;99692.59;;;46.63;20.47
28683;BME280;15862;43.062;25.626;2022-07-01T12:17:01;99673.84;;;46.96;20.44
28683;BME280;15862;43.062;25.626;2022-07-01T12:19:39;99684.38;;;45.89;20.53
28683;BME280;15862;43.062;25.626;2022-07-01T12:22:07;99682.84;;;43.98;22.44
28683;BME280;15862;43.062;25.626;2022-07-01T12:24:33;99665.00;;;42.40;23.36
28683;BME280;15862;43.062;25.626;2022-07-01T12:29:28;99669.78;;;40.91;25.01
28683;BME280;15862;43.062;25.626;2022-07-01T12:32:05;99674.50;;;41.25;25.03
28683;BME280;15862;43.062;25.626;2022-07-01T12:34:42;99661.34;;;42.94;22.94
28683;BME280;15862;43.062;25.626;2022-07-01T12:37:31;99652.50;;;43.99;21.77
28683;BME280;15862;43.062;25.626;2022-07-01T12:40:00;99653.22;;;43.96;21.96
28683;BME280;15862;43.062;25.626;2022-07-01T12:42:30;99653.25;;;43.15;22.60
28683;BME280;15862;43.062;25.626;2022-07-01T12:45:01;99651.69;;;41.59;24.38
28683;BME280;15862;43.062;25.626;2022-07-01T12:47:30;99649.78;;;40.79;24.39
28683;BME280;15862;43.062;25.626;2022-07-01T12:50:12;99658.63;;;40.24;25.02
28683;BME280;15862;43.062;25.626;2022-07-01T12:52:39;99656.34;;;40.78;24.88
28683;BME280;15862;43.062;25.626;2022-07-01T12:55:14;99654.34;;;40.62;25.96
28683;BME280;15862;43.062;25.626;2022-07-01T12:57:41;99658.00;;;39.75;26.88
28683;BME280;15862;43.062;25.626;2022-07-01T13:00:07;99663.28;;;39.80;25.70
28683;BME280;15862;43.062;25.626;2022-07-01T13:02:32;99655.00;;;40.67;25.06
28683;BME280;15862;43.062;25.626;2022-07-01T13:04:58;99648.78;;;41.39;24.39
28683;BME280;15862;43.062;25.626;2022-07-01T13:07:24;99639.53;;;41.74;24.65
28683;BME280;15862;43.062;25.626;2022-07-01T13:09:49;99657.94;;;42.39;23.73
28683;BME280;15862;43.062;25.626;2022-07-01T13:12:15;99654.72;;;41.50;23.52